sensor_id;sensor_type;location;lat;lon;timestamp;P1;durP1;ratioP1;P2;durP2;ratioP2
4011;SDS011;2020;48.682;9.024;2022-12-05T00:00:28;18.60;;;10.90;;
4011;SDS011;2020;48.682;9.024;2022-12-05T00:02:54;16.10;;;10.70;;
4011;SDS011;2020;48.682;9.024;2022-12-05T00:05:19;18.50;;;11.00;;
4011;SDS011;2020;48.682;9.024;2022-12-05T00:07:45;18.03;;;10.00;;
4011;SDS011;2020;48.682;9.024;2022-12-05T00:10:10;17.73;;;10.73;;
4011;SDS011;2020;48.682;9.024;2022-12-05T00:12:36;13.90;;;9.50;;
4011;SDS011;2020;48.682;9.024;2022-12-05T00:15:01;19.00;;;9.53;;
4011;SDS011;2020;48.682;9.024;2022-12-05T00:17:26;17.80;;;10.97;;
4011;SDS011;2020;48.682;9.024;2022-12-05T00:19:51;16.90;;;10.93;;
4011;SDS011;2020;48.682;9.024;2022-12-05T00:22:17;19.73;;;10.90;;
4011;SDS011;2020;48.682;9.024;2022-12-05T00:24:42;19.27;;;10.07;;
4011;SDS011;2020;48.682;9.024;2022-12-05T00:27:07;15.30;;;8.80;;
4011;SDS011;2020;48.682;9.024;2022-12-05T00:29:33;13.93;;;9.40;;
4011;SDS011;2020;48.682;9.024;2022-12-05T00:31:58;18.80;;;10.83;;
4011;SDS011;2020;48.682;9.024;2022-12-05T00:34:23;18.50;;;11.93;;
4011;SDS011;2020;48.682;9.024;2022-12-05T00:36:49;15.47;;;10.17;;
4011;SDS011;2020;48.682;9.024;2022-12-05T00:39:14;19.37;;;10.50;;
4011;SDS011;2020;48.682;9.024;2022-12-05T00:41:40;14.90;;;9.87;;
4011;SDS011;2020;48.682;9.024;2022-12-05T00:44:06;15.17;;;9.10;;
4011;SDS011;2020;48.682;9.024;2022-12-05T00:46:32;12.20;;;8.83;;
4011;SDS011;2020;48.682;9.024;2022-12-05T00:48:59;18.50;;;9.47;;
4011;SDS011;2020;48.682;9.024;2022-12-05T00:51:27;13.90;;;8.83;;
4011;SDS011;2020;48.682;9.024;2022-12-05T00:53:56;17.43;;;9.13;;
4011;SDS011;2020;48.682;9.024;2022-12-05T00:56:24;18.07;;;10.10;;
4011;SDS011;2020;48.682;9.024;2022-12-05T00:58:52;11.37;;;8.07;;
4011;SDS011;2020;48.682;9.024;2022-12-05T01:01:21;16.10;;;9.27;;
4011;SDS011;2020;48.682;9.024;2022-12-05T01:03:50;13.50;;;9.50;;
4011;SDS011;2020;48.682;9.024;2022-12-05T01:06:16;12.83;;;8.00;;
4011;SDS011;2020;48.682;9.024;2022-12-05T01:08:42;21.10;;;11.63;;
4011;SDS011;2020;48.682;9.024;2022-12-05T01:11:08;13.17;;;9.40;;
4011;SDS011;2020;48.682;9.024;2022-12-05T01:13:34;13.23;;;10.23;;
4011;SDS011;2020;48.682;9.024;2022-12-05T01:16:00;20.13;;;9.70;;
4011;SDS011;2020;48.682;9.024;2022-12-05T01:18:26;16.60;;;8.87;;
4011;SDS011;2020;48.682;9.024;2022-12-05T01:20:51;16.53;;;9.60;;
4011;SDS011;2020;48.682;9.024;2022-12-05T01:23:18;15.53;;;9.37;;
4011;SDS011;2020;48.682;9.024;2022-12-05T01:25:45;15.87;;;9.30;;
4011;SDS011;2020;48.682;9.024;2022-12-05T01:28:12;19.00;;;9.00;;
4011;SDS011;2020;48.682;9.024;2022-12-05T01:30:45;13.80;;;9.13;;
4011;SDS011;2020;48.682;9.024;2022-12-05T01:33:12;15.13;;;11.00;;
4011;SDS011;2020;48.682;9.024;2022-12-05T01:35:38;19.30;;;11.47;;
4011;SDS011;2020;48.682;9.024;2022-12-05T01:38:05;17.77;;;10.60;;
4011;SDS011;2020;48.682;9.024;2022-12-05T01:40:31;13.77;;;9.23;;
4011;SDS011;2020;48.682;9.024;2022-12-05T01:42:57;17.53;;;10.33;;
4011;SDS011;2020;48.682;9.024;2022-12-05T01:45:34;21.10;;;11.67;;
4011;SDS011;2020;48.682;9.024;2022-12-05T01:48:03;15.77;;;9.30;;
4011;SDS011;2020;48.682;9.024;2022-12-05T01:50:32;16.87;;;10.27;;
4011;SDS011;2020;48.682;9.024;2022-12-05T01:52:58;21.50;;;10.90;;
4011;SDS011;2020;48.682;9.024;2022-12-05T01:55:24;18.40;;;10.63;;
4011;SDS011;2020;48.682;9.024;2022-12-05T01:57:49;20.60;;;10.73;;
4011;SDS011;2020;48.682;9.024;2022-12-05T02:00:16;20.23;;;11.77;;
4011;SDS011;2020;48.682;9.024;2022-12-05T02:02:44;18.37;;;9.60;;
4011;SDS011;2020;48.682;9.024;2022-12-05T02:05:22;21.37;;;11.23;;
4011;SDS011;2020;48.682;9.024;2022-12-05T02:07:51;15.27;;;9.87;;
4011;SDS011;2020;48.682;9.024;2022-12-05T02:10:17;19.30;;;10.33;;
4011;SDS011;2020;48.682;9.024;2022-12-05T02:12:42;19.00;;;11.50;;
4011;SDS011;2020;48.682;9.024;2022-12-05T02:15:31;17.30;;;10.90;;
4011;SDS011;2020;48.682;9.024;2022-12-05T02:26:38;21.00;;;11.77;;
4011;SDS011;2020;48.682;9.024;2022-12-05T02:32:17;18.80;;;11.53;;
4011;SDS011;2020;48.682;9.024;2022-12-05T02:34:57;21.10;;;12.40;;
4011;SDS011;2020;48.682;9.024;2022-12-05T02:37:32;19.67;;;12.13;;
4011;SDS011;2020;48.682;9.024;2022-12-05T02:42:45;22.53;;;11.93;;
4011;SDS011;2020;48.682;9.024;2022-12-05T02:45:26;24.40;;;11.33;;
4011;SDS011;2020;48.682;9.024;2022-12-05T02:47:54;23.00;;;11.57;;
4011;SDS011;2020;48.682;9.024;2022-12-05T02:50:22;26.50;;;13.00;;
4011;SDS011;2020;48.682;9.024;2022-12-05T02:52:55;25.67;;;11.83;;
4011;SDS011;2020;48.682;9.024;2022-12-05T02:55:24;22.10;;;11.23;;
4011;SDS011;2020;48.682;9.024;2022-12-05T02:57:53;21.77;;;13.10;;
4011;SDS011;2020;48.682;9.024;2022-12-05T03:00:21;22.70;;;12.30;;
4011;SDS011;2020;48.682;9.024;2022-12-05T03:02:47;25.07;;;10.50;;
4011;SDS011;2020;48.682;9.024;2022-12-05T03:05:21;20.10;;;12.73;;
4011;SDS011;2020;48.682;9.024;2022-12-05T03:07:56;22.07;;;10.97;;
4011;SDS011;2020;48.682;9.024;2022-12-05T03:10:26;16.60;;;9.83;;
4011;SDS011;2020;48.682;9.024;2022-12-05T03:12:56;19.43;;;10.30;;
4011;SDS011;2020;48.682;9.024;2022-12-05T03:15:28;23.23;;;11.07;;
4011;SDS011;2020;48.682;9.024;2022-12-05T03:17:59;17.30;;;8.70;;
4011;SDS011;2020;48.682;9.024;2022-12-05T03:20:36;19.70;;;10.50;;
4011;SDS011;2020;48.682;9.024;2022-12-05T03:23:15;17.97;;;10.00;;
4011;SDS011;2020;48.682;9.024;2022-12-05T03:26:02;22.20;;;11.37;;
4011;SDS011;2020;48.682;9.024;2022-12-05T03:31:07;19.27;;;11.40;;
4011;SDS011;2020;48.682;9.024;2022-12-05T03:33:38;15.73;;;10.80;;
4011;SDS011;2020;48.682;9.024;2022-12-05T03:36:23;16.33;;;10.50;;
4011;SDS011;2020;48.682;9.024;2022-12-05T03:39:02;22.17;;;12.17;;
4011;SDS011;2020;48.682;9.024;2022-12-05T03:41:52;17.60;;;10.67;;
4011;SDS011;2020;48.682;9.024;2022-12-05T03:47:06;19.40;;;10.90;;
4011;SDS011;2020;48.682;9.024;2022-12-05T03:49:44;16.13;;;10.20;;
4011;SDS011;2020;48.682;9.024;2022-12-05T03:52:25;18.17;;;9.97;;
4011;SDS011;2020;48.682;9.024;2022-12-05T03:55:09;20.83;;;10.53;;
4011;SDS011;2020;48.682;9.024;2022-12-05T04:00:22;17.00;;;10.07;;
4011;SDS011;2020;48.682;9.024;2022-12-05T04:03:03;17.77;;;10.17;;
4011;SDS011;2020;48.682;9.024;2022-12-05T04:05:53;17.50;;;9.23;;
4011;SDS011;2020;48.682;9.024;2022-12-05T04:08:48;19.30;;;9.70;;
4011;SDS011;2020;48.682;9.024;2022-12-05T04:11:17;14.80;;;10.40;;
4011;SDS011;2020;48.682;9.024;2022-12-05T04:13:46;14.47;;;9.00;;
4011;SDS011;2020;48.682;9.024;2022-12-05T04:16:24;12.87;;;8.30;;
4011;SDS011;2020;48.682;9.024;2022-12-05T04:19:22;10.70;;;7.53;;
4011;SDS011;2020;48.682;9.024;2022-12-05T04:22:17;16.13;;;9.80;;
4011;SDS011;2020;48.682;9.024;2022-12-05T04:24:44;16.67;;;9.80;;
4011;SDS011;2020;48.682;9.024;2022-12-05T04:30:20;13.90;;;8.77;;
4011;SDS011;2020;48.682;9.024;2022-12-05T04:32:52;13.10;;;8.70;;
4011;SDS011;2020;48.682;9.024;2022-12-05T04:38:59;9.13;;;8.07;;
4011;SDS011;2020;48.682;9.024;2022-12-05T04:41:15;10.83;;;8.30;;
4011;SDS011;2020;48.682;9.024;2022-12-05T04:43:46;15.43;;;10.20;;
4011;SDS011;2020;48.682;9.024;2022-12-05T04:46:14;13.63;;;8.77;;
4011;SDS011;2020;48.682;9.024;2022-12-05T04:48:43;14.40;;;8.57;;
4011;SDS011;2020;48.682;9.024;2022-12-05T04:51:14;13.60;;;8.13;;
4011;SDS011;2020;48.682;9.024;2022-12-05T04:53:42;8.97;;;7.20;;
4011;SDS011;2020;48.682;9.024;2022-12-05T04:56:10;15.40;;;9.00;;
4011;SDS011;2020;48.682;9.024;2022-12-05T04:58:40;11.57;;;9.37;;
4011;SDS011;2020;48.682;9.024;2022-12-05T05:01:13;9.80;;;7.13;;
4011;SDS011;2020;48.682;9.024;2022-12-05T05:06:21;12.30;;;7.60;;
4011;SDS011;2020;48.682;9.024;2022-12-05T05:08:48;9.93;;;7.93;;
4011;SDS011;2020;48.682;9.024;2022-12-05T05:11:19;10.40;;;8.10;;
4011;SDS011;2020;48.682;9.024;2022-12-05T05:13:46;14.87;;;8.20;;
4011;SDS011;2020;48.682;9.024;2022-12-05T05:16:23;11.47;;;7.10;;
4011;SDS011;2020;48.682;9.024;2022-12-05T05:18:50;9.67;;;7.63;;
4011;SDS011;2020;48.682;9.024;2022-12-05T05:21:20;9.07;;;8.07;;
4011;SDS011;2020;48.682;9.024;2022-12-05T05:23:49;12.70;;;8.77;;
4011;SDS011;2020;48.682;9.024;2022-12-05T05:26:15;14.57;;;9.47;;
4011;SDS011;2020;48.682;9.024;2022-12-05T05:28:41;10.17;;;7.73;;
4011;SDS011;2020;48.682;9.024;2022-12-05T05:31:06;14.80;;;8.13;;
4011;SDS011;2020;48.682;9.024;2022-12-05T05:33:32;11.40;;;8.10;;
4011;SDS011;2020;48.682;9.024;2022-12-05T05:36:05;8.67;;;7.87;;
4011;SDS011;2020;48.682;9.024;2022-12-05T05:38:37;10.23;;;7.57;;
4011;SDS011;2020;48.682;9.024;2022-12-05T05:41:03;8.67;;;7.30;;
4011;SDS011;2020;48.682;9.024;2022-12-05T05:43:29;11.60;;;7.67;;
4011;SDS011;2020;48.682;9.024;2022-12-05T05:45:54;12.57;;;7.60;;
4011;SDS011;2020;48.682;9.024;2022-12-05T05:48:19;9.00;;;7.17;;
4011;SDS011;2020;48.682;9.024;2022-12-05T05:50:44;12.90;;;8.73;;
4011;SDS011;2020;48.682;9.024;2022-12-05T05:53:10;10.07;;;8.17;;
4011;SDS011;2020;48.682;9.024;2022-12-05T05:55:38;10.27;;;7.93;;
4011;SDS011;2020;48.682;9.024;2022-12-05T05:58:07;9.73;;;7.63;;
4011;SDS011;2020;48.682;9.024;2022-12-05T06:00:32;9.30;;;8.40;;
4011;SDS011;2020;48.682;9.024;2022-12-05T06:02:57;7.03;;;6.33;;
4011;SDS011;2020;48.682;9.024;2022-12-05T06:05:23;7.10;;;6.40;;
4011;SDS011;2020;48.682;9.024;2022-12-05T06:07:48;6.10;;;5.50;;
4011;SDS011;2020;48.682;9.024;2022-12-05T06:10:13;10.03;;;7.83;;
4011;SDS011;2020;48.682;9.024;2022-12-05T06:12:39;8.87;;;7.10;;
4011;SDS011;2020;48.682;9.024;2022-12-05T06:15:04;7.63;;;6.83;;
4011;SDS011;2020;48.682;9.024;2022-12-05T06:17:30;8.03;;;7.07;;
4011;SDS011;2020;48.682;9.024;2022-12-05T06:19:55;7.53;;;6.80;;
4011;SDS011;2020;48.682;9.024;2022-12-05T06:22:21;8.17;;;6.10;;
4011;SDS011;2020;48.682;9.024;2022-12-05T06:24:46;8.17;;;7.30;;
4011;SDS011;2020;48.682;9.024;2022-12-05T06:27:11;9.83;;;7.53;;
4011;SDS011;2020;48.682;9.024;2022-12-05T06:29:36;9.17;;;6.67;;
4011;SDS011;2020;48.682;9.024;2022-12-05T06:32:02;10.10;;;7.27;;
4011;SDS011;2020;48.682;9.024;2022-12-05T06:34:27;15.60;;;7.90;;
4011;SDS011;2020;48.682;9.024;2022-12-05T06:36:53;8.60;;;7.40;;
4011;SDS011;2020;48.682;9.024;2022-12-05T06:39:18;10.80;;;8.70;;
4011;SDS011;2020;48.682;9.024;2022-12-05T06:41:43;11.30;;;8.67;;
4011;SDS011;2020;48.682;9.024;2022-12-05T06:44:08;9.63;;;8.53;;
4011;SDS011;2020;48.682;9.024;2022-12-05T06:46:34;13.20;;;8.17;;
4011;SDS011;2020;48.682;9.024;2022-12-05T06:48:59;8.87;;;7.40;;
4011;SDS011;2020;48.682;9.024;2022-12-05T06:51:24;11.60;;;9.07;;
4011;SDS011;2020;48.682;9.024;2022-12-05T06:53:50;11.07;;;9.30;;
4011;SDS011;2020;48.682;9.024;2022-12-05T06:56:16;11.00;;;8.93;;
4011;SDS011;2020;48.682;9.024;2022-12-05T06:58:47;10.93;;;8.10;;
4011;SDS011;2020;48.682;9.024;2022-12-05T07:01:15;10.60;;;8.60;;
4011;SDS011;2020;48.682;9.024;2022-12-05T07:04:02;10.17;;;7.93;;
4011;SDS011;2020;48.682;9.024;2022-12-05T07:06:28;9.00;;;7.20;;
4011;SDS011;2020;48.682;9.024;2022-12-05T07:08:54;14.70;;;8.80;;
4011;SDS011;2020;48.682;9.024;2022-12-05T07:11:19;9.27;;;7.87;;
4011;SDS011;2020;48.682;9.024;2022-12-05T07:13:45;10.20;;;7.83;;
4011;SDS011;2020;48.682;9.024;2022-12-05T07:16:10;7.83;;;7.03;;
4011;SDS011;2020;48.682;9.024;2022-12-05T07:18:36;9.70;;;8.10;;
4011;SDS011;2020;48.682;9.024;2022-12-05T07:21:03;9.67;;;7.70;;
4011;SDS011;2020;48.682;9.024;2022-12-05T07:23:30;9.40;;;8.13;;
4011;SDS011;2020;48.682;9.024;2022-12-05T07:25:56;8.33;;;7.53;;
4011;SDS011;2020;48.682;9.024;2022-12-05T07:28:22;9.43;;;8.40;;
4011;SDS011;2020;48.682;9.024;2022-12-05T07:30:47;9.03;;;8.10;;
4011;SDS011;2020;48.682;9.024;2022-12-05T07:33:12;10.77;;;7.87;;
4011;SDS011;2020;48.682;9.024;2022-12-05T07:35:38;7.67;;;6.80;;
4011;SDS011;2020;48.682;9.024;2022-12-05T07:38:03;8.13;;;7.30;;
4011;SDS011;2020;48.682;9.024;2022-12-05T07:40:28;10.57;;;7.73;;
4011;SDS011;2020;48.682;9.024;2022-12-05T07:42:53;9.40;;;7.27;;
4011;SDS011;2020;48.682;9.024;2022-12-05T07:45:19;8.40;;;7.50;;
4011;SDS011;2020;48.682;9.024;2022-12-05T07:47:45;10.13;;;6.73;;
4011;SDS011;2020;48.682;9.024;2022-12-05T07:50:11;8.47;;;6.97;;
4011;SDS011;2020;48.682;9.024;2022-12-05T07:52:37;6.77;;;6.13;;
4011;SDS011;2020;48.682;9.024;2022-12-05T07:55:02;10.67;;;7.10;;
4011;SDS011;2020;48.682;9.024;2022-12-05T07:57:29;7.33;;;6.30;;
4011;SDS011;2020;48.682;9.024;2022-12-05T07:59:55;8.57;;;6.80;;
4011;SDS011;2020;48.682;9.024;2022-12-05T08:02:20;6.97;;;6.27;;
4011;SDS011;2020;48.682;9.024;2022-12-05T08:04:45;7.47;;;6.67;;
4011;SDS011;2020;48.682;9.024;2022-12-05T08:07:10;7.27;;;6.67;;
4011;SDS011;2020;48.682;9.024;2022-12-05T08:09:36;7.50;;;6.13;;
4011;SDS011;2020;48.682;9.024;2022-12-05T08:12:01;8.33;;;7.13;;
4011;SDS011;2020;48.682;9.024;2022-12-05T08:14:27;8.00;;;7.00;;
4011;SDS011;2020;48.682;9.024;2022-12-05T08:16:52;6.93;;;6.37;;
4011;SDS011;2020;48.682;9.024;2022-12-05T08:19:18;7.57;;;6.83;;
4011;SDS011;2020;48.682;9.024;2022-12-05T08:21:43;9.57;;;7.97;;
4011;SDS011;2020;48.682;9.024;2022-12-05T08:24:09;9.10;;;7.60;;
4011;SDS011;2020;48.682;9.024;2022-12-05T08:26:35;8.17;;;5.70;;
4011;SDS011;2020;48.682;9.024;2022-12-05T08:31:32;10.90;;;9.00;;
4011;SDS011;2020;48.682;9.024;2022-12-05T08:34:00;8.57;;;7.73;;
4011;SDS011;2020;48.682;9.024;2022-12-05T08:36:26;6.50;;;5.90;;
4011;SDS011;2020;48.682;9.024;2022-12-05T08:38:56;9.27;;;8.37;;
4011;SDS011;2020;48.682;9.024;2022-12-05T08:41:26;10.33;;;7.00;;
4011;SDS011;2020;48.682;9.024;2022-12-05T08:43:55;6.40;;;5.90;;
4011;SDS011;2020;48.682;9.024;2022-12-05T08:46:31;12.20;;;7.40;;
4011;SDS011;2020;48.682;9.024;2022-12-05T08:48:57;9.73;;;7.20;;
4011;SDS011;2020;48.682;9.024;2022-12-05T08:51:23;7.93;;;7.13;;
4011;SDS011;2020;48.682;9.024;2022-12-05T08:53:49;7.67;;;6.90;;
4011;SDS011;2020;48.682;9.024;2022-12-05T08:56:14;13.87;;;6.80;;
4011;SDS011;2020;48.682;9.024;2022-12-05T08:58:40;7.77;;;6.97;;
4011;SDS011;2020;48.682;9.024;2022-12-05T09:01:06;7.17;;;6.50;;
4011;SDS011;2020;48.682;9.024;2022-12-05T09:03:32;6.80;;;6.20;;
4011;SDS011;2020;48.682;9.024;2022-12-05T09:08:45;5.77;;;5.37;;
4011;SDS011;2020;48.682;9.024;2022-12-05T09:11:11;7.07;;;6.40;;
4011;SDS011;2020;48.682;9.024;2022-12-05T09:13:39;6.87;;;6.27;;
4011;SDS011;2020;48.682;9.024;2022-12-05T09:16:06;7.70;;;6.13;;
4011;SDS011;2020;48.682;9.024;2022-12-05T09:18:34;8.67;;;7.73;;
4011;SDS011;2020;48.682;9.024;2022-12-05T09:23:35;9.80;;;7.10;;
4011;SDS011;2020;48.682;9.024;2022-12-05T09:26:01;7.40;;;6.70;;
4011;SDS011;2020;48.682;9.024;2022-12-05T09:28:27;8.30;;;7.37;;
4011;SDS011;2020;48.682;9.024;2022-12-05T09:30:54;14.20;;;7.43;;
4011;SDS011;2020;48.682;9.024;2022-12-05T09:33:25;7.23;;;6.47;;
4011;SDS011;2020;48.682;9.024;2022-12-05T09:35:50;7.53;;;6.77;;
4011;SDS011;2020;48.682;9.024;2022-12-05T09:38:16;7.77;;;7.10;;
4011;SDS011;2020;48.682;9.024;2022-12-05T09:40:41;11.10;;;7.63;;
4011;SDS011;2020;48.682;9.024;2022-12-05T09:43:07;6.90;;;6.27;;
4011;SDS011;2020;48.682;9.024;2022-12-05T09:45:50;6.50;;;5.90;;
4011;SDS011;2020;48.682;9.024;2022-12-05T09:48:21;7.63;;;6.50;;
4011;SDS011;2020;48.682;9.024;2022-12-05T09:53:31;5.90;;;5.37;;
4011;SDS011;2020;48.682;9.024;2022-12-05T09:56:04;7.03;;;6.40;;
4011;SDS011;2020;48.682;9.024;2022-12-05T10:10:07;6.73;;;6.13;;
4011;SDS011;2020;48.682;9.024;2022-12-05T10:20:46;10.23;;;6.93;;
4011;SDS011;2020;48.682;9.024;2022-12-05T10:23:17;5.87;;;5.03;;
4011;SDS011;2020;48.682;9.024;2022-12-05T10:25:49;5.93;;;5.43;;
4011;SDS011;2020;48.682;9.024;2022-12-05T10:28:39;5.97;;;5.47;;
4011;SDS011;2020;48.682;9.024;2022-12-05T10:31:12;6.27;;;4.60;;
4011;SDS011;2020;48.682;9.024;2022-12-05T10:33:42;4.87;;;4.40;;
4011;SDS011;2020;48.682;9.024;2022-12-05T10:36:13;3.97;;;3.77;;
4011;SDS011;2020;48.682;9.024;2022-12-05T10:38:40;3.60;;;3.40;;
4011;SDS011;2020;48.682;9.024;2022-12-05T10:41:07;4.60;;;4.30;;
4011;SDS011;2020;48.682;9.024;2022-12-05T10:43:36;3.20;;;3.10;;
4011;SDS011;2020;48.682;9.024;2022-12-05T10:46:04;4.30;;;4.00;;
4011;SDS011;2020;48.682;9.024;2022-12-05T10:48:32;4.60;;;4.20;;
4011;SDS011;2020;48.682;9.024;2022-12-05T10:51:00;4.03;;;3.77;;
4011;SDS011;2020;48.682;9.024;2022-12-05T10:54:12;4.37;;;4.07;;
4011;SDS011;2020;48.682;9.024;2022-12-05T10:59:10;3.80;;;3.60;;
4011;SDS011;2020;48.682;9.024;2022-12-05T11:01:42;5.33;;;4.03;;
4011;SDS011;2020;48.682;9.024;2022-12-05T11:04:28;2.97;;;2.83;;
4011;SDS011;2020;48.682;9.024;2022-12-05T11:07:03;4.03;;;3.83;;
4011;SDS011;2020;48.682;9.024;2022-12-05T11:09:33;5.90;;;4.80;;
4011;SDS011;2020;48.682;9.024;2022-12-05T11:15:04;3.30;;;3.10;;
4011;SDS011;2020;48.682;9.024;2022-12-05T11:17:50;3.77;;;3.57;;
4011;SDS011;2020;48.682;9.024;2022-12-05T11:22:46;3.70;;;3.50;;
4011;SDS011;2020;48.682;9.024;2022-12-05T11:25:30;3.30;;;3.20;;
4011;SDS011;2020;48.682;9.024;2022-12-05T11:27:58;3.40;;;3.20;;
4011;SDS011;2020;48.682;9.024;2022-12-05T11:30:26;3.53;;;3.23;;
4011;SDS011;2020;48.682;9.024;2022-12-05T11:35:44;3.10;;;2.90;;
4011;SDS011;2020;48.682;9.024;2022-12-05T11:38:11;2.87;;;2.77;;
4011;SDS011;2020;48.682;9.024;2022-12-05T11:40:46;3.47;;;3.27;;
4011;SDS011;2020;48.682;9.024;2022-12-05T11:45:57;2.67;;;2.57;;
4011;SDS011;2020;48.682;9.024;2022-12-05T11:51:35;3.53;;;3.33;;
4011;SDS011;2020;48.682;9.024;2022-12-05T11:57:02;3.33;;;3.13;;
4011;SDS011;2020;48.682;9.024;2022-12-05T11:59:42;3.70;;;3.13;;
4011;SDS011;2020;48.682;9.024;2022-12-05T12:12:51;3.80;;;3.60;;
4011;SDS011;2020;48.682;9.024;2022-12-05T12:18:15;3.30;;;3.10;;
4011;SDS011;2020;48.682;9.024;2022-12-05T12:20:52;2.80;;;2.70;;
4011;SDS011;2020;48.682;9.024;2022-12-05T12:37:50;3.37;;;3.20;;
4011;SDS011;2020;48.682;9.024;2022-12-05T12:40:49;4.30;;;4.00;;
4011;SDS011;2020;48.682;9.024;2022-12-05T12:49:00;2.97;;;2.83;;
4011;SDS011;2020;48.682;9.024;2022-12-05T12:51:29;5.53;;;3.80;;
4011;SDS011;2020;48.682;9.024;2022-12-05T13:01:51;3.93;;;3.73;;
4011;SDS011;2020;48.682;9.024;2022-12-05T13:04:24;4.30;;;3.90;;
4011;SDS011;2020;48.682;9.024;2022-12-05T13:06:56;3.53;;;3.43;;
4011;SDS011;2020;48.682;9.024;2022-12-05T13:09:42;3.97;;;3.67;;
4011;SDS011;2020;48.682;9.024;2022-12-05T13:12:12;4.03;;;3.70;;
4011;SDS011;2020;48.682;9.024;2022-12-05T13:14:41;4.03;;;3.73;;
4011;SDS011;2020;48.682;9.024;2022-12-05T13:17:16;3.83;;;3.63;;
4011;SDS011;2020;48.682;9.024;2022-12-05T13:19:45;3.47;;;3.37;;
4011;SDS011;2020;48.682;9.024;2022-12-05T13:22:13;4.80;;;4.40;;
4011;SDS011;2020;48.682;9.024;2022-12-05T13:24:41;4.10;;;3.63;;
4011;SDS011;2020;48.682;9.024;2022-12-05T13:27:08;4.13;;;3.93;;
4011;SDS011;2020;48.682;9.024;2022-12-05T13:29:54;3.17;;;3.07;;
4011;SDS011;2020;48.682;9.024;2022-12-05T13:35:20;3.70;;;3.50;;
4011;SDS011;2020;48.682;9.024;2022-12-05T13:38:30;3.60;;;3.40;;
4011;SDS011;2020;48.682;9.024;2022-12-05T13:41:17;3.93;;;3.63;;
4011;SDS011;2020;48.682;9.024;2022-12-05T13:44:01;3.53;;;3.43;;
4011;SDS011;2020;48.682;9.024;2022-12-05T13:46:36;6.20;;;5.37;;
4011;SDS011;2020;48.682;9.024;2022-12-05T13:49:05;5.77;;;5.17;;
4011;SDS011;2020;48.682;9.024;2022-12-05T13:51:52;3.30;;;3.10;;
4011;SDS011;2020;48.682;9.024;2022-12-05T13:54:19;4.30;;;4.10;;
4011;SDS011;2020;48.682;9.024;2022-12-05T13:56:56;3.70;;;3.10;;
4011;SDS011;2020;48.682;9.024;2022-12-05T14:10:17;2.90;;;2.70;;
4011;SDS011;2020;48.682;9.024;2022-12-05T14:15:22;2.50;;;2.40;;
4011;SDS011;2020;48.682;9.024;2022-12-05T14:17:56;1.90;;;1.80;;
4011;SDS011;2020;48.682;9.024;2022-12-05T14:23:08;1.87;;;1.77;;
4011;SDS011;2020;48.682;9.024;2022-12-05T14:33:39;1.80;;;1.70;;
4011;SDS011;2020;48.682;9.024;2022-12-05T14:36:05;1.63;;;1.53;;
4011;SDS011;2020;48.682;9.024;2022-12-05T14:38:33;2.30;;;2.20;;
4011;SDS011;2020;48.682;9.024;2022-12-05T14:43:59;1.40;;;1.40;;
4011;SDS011;2020;48.682;9.024;2022-12-05T14:46:27;1.50;;;1.40;;
4011;SDS011;2020;48.682;9.024;2022-12-05T14:48:55;1.30;;;1.30;;
4011;SDS011;2020;48.682;9.024;2022-12-05T14:54:07;2.80;;;1.60;;
4011;SDS011;2020;48.682;9.024;2022-12-05T14:56:40;2.10;;;2.00;;
4011;SDS011;2020;48.682;9.024;2022-12-05T14:59:20;1.83;;;1.83;;
4011;SDS011;2020;48.682;9.024;2022-12-05T15:01:51;1.70;;;1.60;;
4011;SDS011;2020;48.682;9.024;2022-12-05T15:05:04;1.90;;;1.80;;
4011;SDS011;2020;48.682;9.024;2022-12-05T15:07:18;1.60;;;1.60;;
4011;SDS011;2020;48.682;9.024;2022-12-05T15:09:56;1.40;;;1.40;;
4011;SDS011;2020;48.682;9.024;2022-12-05T15:12:30;1.67;;;1.57;;
4011;SDS011;2020;48.682;9.024;2022-12-05T15:17:43;1.40;;;1.30;;
4011;SDS011;2020;48.682;9.024;2022-12-05T15:20:16;1.90;;;1.80;;
4011;SDS011;2020;48.682;9.024;2022-12-05T15:22:47;2.33;;;2.17;;
4011;SDS011;2020;48.682;9.024;2022-12-05T15:25:13;5.70;;;2.67;;
4011;SDS011;2020;48.682;9.024;2022-12-05T15:27:39;2.53;;;2.43;;
4011;SDS011;2020;48.682;9.024;2022-12-05T15:30:05;1.60;;;1.60;;
4011;SDS011;2020;48.682;9.024;2022-12-05T15:32:38;2.13;;;1.93;;
4011;SDS011;2020;48.682;9.024;2022-12-05T15:35:05;3.30;;;3.10;;
4011;SDS011;2020;48.682;9.024;2022-12-05T15:40:00;4.13;;;3.33;;
4011;SDS011;2020;48.682;9.024;2022-12-05T15:42:50;4.30;;;3.97;;
4011;SDS011;2020;48.682;9.024;2022-12-05T15:45:27;3.30;;;3.10;;
4011;SDS011;2020;48.682;9.024;2022-12-05T15:47:55;4.10;;;2.50;;
4011;SDS011;2020;48.682;9.024;2022-12-05T15:50:41;3.47;;;3.20;;
4011;SDS011;2020;48.682;9.024;2022-12-05T15:53:12;4.33;;;4.03;;
4011;SDS011;2020;48.682;9.024;2022-12-05T15:55:44;3.30;;;3.10;;
4011;SDS011;2020;48.682;9.024;2022-12-05T15:58:32;3.03;;;2.83;;
4011;SDS011;2020;48.682;9.024;2022-12-05T16:01:05;3.90;;;3.70;;
4011;SDS011;2020;48.682;9.024;2022-12-05T16:09:07;2.70;;;2.60;;
4011;SDS011;2020;48.682;9.024;2022-12-05T16:11:38;4.00;;;3.80;;
4011;SDS011;2020;48.682;9.024;2022-12-05T16:14:04;4.70;;;4.40;;
4011;SDS011;2020;48.682;9.024;2022-12-05T16:16:31;3.77;;;3.57;;
4011;SDS011;2020;48.682;9.024;2022-12-05T16:19:12;8.70;;;8.00;;
4011;SDS011;2020;48.682;9.024;2022-12-05T16:21:41;4.60;;;4.40;;
4011;SDS011;2020;48.682;9.024;2022-12-05T16:24:21;3.77;;;3.60;;
4011;SDS011;2020;48.682;9.024;2022-12-05T16:26:53;3.67;;;3.37;;
4011;SDS011;2020;48.682;9.024;2022-12-05T16:29:26;3.27;;;3.17;;
4011;SDS011;2020;48.682;9.024;2022-12-05T16:31:54;3.10;;;3.00;;
4011;SDS011;2020;48.682;9.024;2022-12-05T16:34:22;3.27;;;3.07;;
4011;SDS011;2020;48.682;9.024;2022-12-05T16:36:48;2.27;;;2.27;;
4011;SDS011;2020;48.682;9.024;2022-12-05T16:39:16;3.37;;;3.00;;
4011;SDS011;2020;48.682;9.024;2022-12-05T16:41:41;3.60;;;3.10;;
4011;SDS011;2020;48.682;9.024;2022-12-05T16:46:50;6.90;;;5.47;;
4011;SDS011;2020;48.682;9.024;2022-12-05T16:49:20;4.93;;;4.53;;
4011;SDS011;2020;48.682;9.024;2022-12-05T16:51:55;4.10;;;3.70;;
4011;SDS011;2020;48.682;9.024;2022-12-05T16:54:24;3.70;;;3.40;;
4011;SDS011;2020;48.682;9.024;2022-12-05T16:56:49;3.83;;;3.50;;
4011;SDS011;2020;48.682;9.024;2022-12-05T16:59:26;3.30;;;3.20;;
4011;SDS011;2020;48.682;9.024;2022-12-05T17:01:56;3.43;;;3.23;;
4011;SDS011;2020;48.682;9.024;2022-12-05T17:04:21;3.73;;;3.53;;
4011;SDS011;2020;48.682;9.024;2022-12-05T17:06:46;4.23;;;3.93;;
4011;SDS011;2020;48.682;9.024;2022-12-05T17:09:12;3.80;;;3.60;;
4011;SDS011;2020;48.682;9.024;2022-12-05T17:11:38;3.17;;;2.97;;
4011;SDS011;2020;48.682;9.024;2022-12-05T17:14:08;4.47;;;4.20;;
4011;SDS011;2020;48.682;9.024;2022-12-05T17:16:38;5.20;;;4.93;;
4011;SDS011;2020;48.682;9.024;2022-12-05T17:19:03;6.67;;;6.17;;
4011;SDS011;2020;48.682;9.024;2022-12-05T17:21:29;4.37;;;4.17;;
4011;SDS011;2020;48.682;9.024;2022-12-05T17:23:57;5.33;;;4.93;;
4011;SDS011;2020;48.682;9.024;2022-12-05T17:26:22;4.87;;;4.57;;
4011;SDS011;2020;48.682;9.024;2022-12-05T17:28:48;5.50;;;5.00;;
4011;SDS011;2020;48.682;9.024;2022-12-05T17:31:18;4.97;;;4.67;;
4011;SDS011;2020;48.682;9.024;2022-12-05T17:33:45;4.60;;;4.30;;
4011;SDS011;2020;48.682;9.024;2022-12-05T17:36:12;4.50;;;4.17;;
4011;SDS011;2020;48.682;9.024;2022-12-05T17:38:38;4.63;;;3.90;;
4011;SDS011;2020;48.682;9.024;2022-12-05T17:41:03;5.00;;;4.60;;
4011;SDS011;2020;48.682;9.024;2022-12-05T17:43:30;5.17;;;4.67;;
4011;SDS011;2020;48.682;9.024;2022-12-05T17:45:58;4.47;;;4.17;;
4011;SDS011;2020;48.682;9.024;2022-12-05T17:48:23;4.97;;;4.60;;
4011;SDS011;2020;48.682;9.024;2022-12-05T17:50:50;5.60;;;5.20;;
4011;SDS011;2020;48.682;9.024;2022-12-05T17:53:16;4.93;;;4.63;;
4011;SDS011;2020;48.682;9.024;2022-12-05T17:55:43;5.60;;;5.10;;
4011;SDS011;2020;48.682;9.024;2022-12-05T17:58:09;5.10;;;4.70;;
4011;SDS011;2020;48.682;9.024;2022-12-05T18:00:35;4.80;;;4.40;;
4011;SDS011;2020;48.682;9.024;2022-12-05T18:03:01;4.70;;;4.30;;
4011;SDS011;2020;48.682;9.024;2022-12-05T18:05:26;5.17;;;4.67;;
4011;SDS011;2020;48.682;9.024;2022-12-05T18:07:52;6.03;;;5.63;;
4011;SDS011;2020;48.682;9.024;2022-12-05T18:10:19;6.70;;;5.93;;
4011;SDS011;2020;48.682;9.024;2022-12-05T18:12:46;6.47;;;5.97;;